createdAt,value
2019-04-03T00:01:04.722Z,96688.06
2019-04-03T00:03:34.596Z,96682.72
2019-04-03T00:06:05.499Z,96678.80
2019-04-03T00:08:36.683Z,96679.20
2019-04-03T00:11:08.786Z,96674.81
2019-04-03T00:13:37.706Z,96665.89
2019-04-03T00:16:09.342Z,96673.20
2019-04-03T00:18:38.732Z,96669.24
2019-04-03T00:21:09.042Z,96669.81
2019-04-03T00:23:38.564Z,96669.24
2019-04-03T00:26:08.962Z,96658.73
2019-04-03T00:28:39.368Z,96668.61
2019-04-03T00:31:08.100Z,96675.31
2019-04-03T00:33:40.594Z,96666.22
2019-04-03T00:36:12.265Z,96662.45
2019-04-03T00:38:41.834Z,96662.43
2019-04-03T00:41:12.422Z,96660.06
2019-04-03T00:43:44.338Z,96663.79
2019-04-03T00:46:13.777Z,96655.97
2019-04-03T00:48:44.178Z,96660.67
2019-04-03T00:51:13.701Z,96652.52
2019-04-03T00:53:44.270Z,96659.22
2019-04-03T00:56:14.661Z,96662.79
2019-04-03T00:58:44.695Z,96655.25
2019-04-03T01:01:14.575Z,96651.03
2019-04-03T01:03:45.159Z,96652.00
2019-04-03T01:06:14.507Z,96650.20
2019-04-03T01:08:44.125Z,96642.09
2019-04-03T01:11:14.590Z,96643.52
2019-04-03T01:13:43.999Z,96642.89
2019-04-03T01:16:13.322Z,96629.99
2019-04-03T01:18:42.149Z,96634.03
2019-04-03T01:21:10.988Z,96637.19
2019-04-03T01:23:40.513Z,96635.09
2019-04-03T01:26:10.342Z,96633.27
2019-04-03T01:28:41.977Z,96623.73
2019-04-03T01:31:14.907Z,96631.19
2019-04-03T01:33:47.152Z,96628.77
2019-04-03T01:36:19.185Z,96629.45
2019-04-03T01:38:50.289Z,96623.99
2019-04-03T01:41:21.220Z,96625.89
2019-04-03T01:43:53.382Z,96623.87
2019-04-03T01:46:23.223Z,96619.56
2019-04-03T01:48:52.595Z,96610.28
2019-04-03T01:51:26.129Z,96614.55
2019-04-03T01:53:55.452Z,96615.73
2019-04-03T01:56:26.286Z,96612.69
2019-04-03T01:58:57.428Z,96611.29
2019-04-03T02:01:27.832Z,96606.57
2019-04-03T02:03:58.231Z,96610.80
2019-04-03T02:06:30.176Z,96613.14
2019-04-03T02:08:59.555Z,96617.42
2019-04-03T02:11:29.968Z,96610.20
2019-04-03T02:14:00.512Z,96606.06
2019-04-03T02:16:29.986Z,96611.39
2019-04-03T02:19:00.340Z,96611.75
2019-04-03T02:21:32.629Z,96607.77
2019-04-03T02:24:02.373Z,96610.22
2019-04-03T02:26:32.710Z,96616.31
2019-04-03T02:29:04.440Z,96610.64
2019-04-03T02:31:33.565Z,96612.18
2019-04-03T02:34:04.139Z,96605.36
2019-04-03T02:36:34.486Z,96608.50
2019-04-03T02:39:03.856Z,96607.42
2019-04-03T02:41:36.504Z,96608.95
2019-04-03T02:44:06.639Z,96613.77
2019-04-03T02:46:37.121Z,96601.55
2019-04-03T02:49:10.757Z,96604.94
2019-04-03T02:51:42.797Z,96602.86
2019-04-03T02:54:20.898Z,96605.86
2019-04-03T02:56:51.582Z,96596.77
2019-04-03T02:59:21.019Z,96594.28
2019-04-03T03:01:51.652Z,96593.97
2019-04-03T03:04:21.926Z,96590.94
2019-04-03T03:06:53.031Z,96589.71
2019-04-03T03:09:22.839Z,96593.74
2019-04-03T03:11:56.343Z,96585.58
2019-04-03T03:14:26.565Z,96588.77
2019-04-03T03:16:57.008Z,96594.78
2019-04-03T03:19:26.523Z,96594.09
2019-04-03T03:22:00.683Z,96584.50
2019-04-03T03:24:35.467Z,96586.80
2019-04-03T03:27:08.056Z,96582.66
2019-04-03T03:29:37.650Z,96585.50
2019-04-03T03:32:15.508Z,96590.44
2019-04-03T03:34:55.075Z,96582.04
2019-04-03T03:37:12.709Z,96580.05
2019-04-03T03:39:43.580Z,96580.39
2019-04-03T03:42:12.741Z,96570.36
2019-04-03T03:44:45.619Z,96571.66
2019-04-03T03:47:13.825Z,96566.60
2019-04-03T03:49:48.519Z,96565.69
2019-04-03T03:52:17.743Z,96571.89
2019-04-03T03:54:51.098Z,96581.59
2019-04-03T03:57:20.463Z,96580.78
2019-04-03T03:59:52.820Z,96573.47
2019-04-03T04:02:23.626Z,96570.86
2019-04-03T04:04:54.070Z,96569.02
2019-04-03T04:07:25.085Z,96574.23
2019-04-03T04:09:55.798Z,96575.16
2019-04-03T04:12:26.502Z,96572.36
2019-04-03T04:14:57.572Z,96575.34
2019-04-03T04:17:30.025Z,96570.05
2019-04-03T04:20:05.153Z,96568.48
2019-04-03T04:22:34.950Z,96565.66
2019-04-03T04:25:08.874Z,96576.88
2019-04-03T04:27:39.543Z,96571.44
2019-04-03T04:30:12.075Z,96572.89
2019-04-03T04:32:42.385Z,96567.88
2019-04-03T04:35:14.988Z,96573.42
2019-04-03T04:37:43.829Z,96562.97
2019-04-03T04:40:13.309Z,96560.20
2019-04-03T04:42:43.665Z,96556.02
2019-04-03T04:45:13.267Z,96548.34
2019-04-03T04:47:45.537Z,96564.41
2019-04-03T04:50:25.765Z,96572.12
2019-04-03T04:52:58.082Z,96570.70
2019-04-03T04:55:30.401Z,96570.94
2019-04-03T04:57:58.727Z,96570.83
2019-04-03T05:00:29.989Z,96569.83
2019-04-03T05:03:01.054Z,96557.91
2019-04-03T05:05:31.311Z,96546.82
2019-04-03T05:08:02.620Z,96547.63
2019-04-03T05:10:34.646Z,96555.39
2019-04-03T05:13:04.449Z,96564.91
2019-04-03T05:15:35.206Z,96558.91
2019-04-03T05:18:07.067Z,96559.12
2019-04-03T05:20:36.509Z,96580.44
2019-04-03T05:23:06.740Z,96589.27
2019-04-03T05:25:37.176Z,96579.84
2019-04-03T05:28:08.486Z,96573.95
2019-04-03T05:30:39.358Z,96577.81
2019-04-03T05:33:11.447Z,96581.69
2019-04-03T05:35:42.181Z,96575.81
2019-04-03T05:38:12.571Z,96584.13
2019-04-03T05:40:43.098Z,96578.34
2019-04-03T05:43:14.965Z,96569.05
2019-04-03T05:45:44.356Z,96567.45
2019-04-03T05:48:17.833Z,96565.39
2019-04-03T05:50:45.149Z,96558.64
2019-04-03T05:53:15.959Z,96549.08
2019-04-03T05:55:45.348Z,96545.61
2019-04-03T05:58:16.689Z,96563.19
2019-04-03T06:00:47.119Z,96574.34
2019-04-03T06:03:17.976Z,96572.70
2019-04-03T06:05:47.613Z,96572.98
2019-04-03T06:08:19.954Z,96559.37
2019-04-03T06:10:50.066Z,96561.17
2019-04-03T06:13:20.441Z,96552.64
2019-04-03T06:15:52.764Z,96544.97
2019-04-03T06:18:22.274Z,96540.02
2019-04-03T06:20:51.990Z,96528.53
2019-04-03T06:23:22.056Z,96526.55
2019-04-03T06:25:52.620Z,96533.09
2019-04-03T06:28:22.252Z,96528.47
2019-04-03T06:30:55.594Z,96528.17
2019-04-03T06:33:26.295Z,96519.84
2019-04-03T06:35:56.676Z,96520.70
2019-04-03T06:38:27.057Z,96519.83
2019-04-03T06:40:57.512Z,96517.04
2019-04-03T06:43:29.280Z,96517.47
2019-04-03T06:45:58.429Z,96518.66
2019-04-03T06:48:28.756Z,96516.50
2019-04-03T06:50:58.235Z,96524.02
2019-04-03T06:53:28.768Z,96536.07
2019-04-03T06:56:00.990Z,96550.76
2019-04-03T06:58:38.145Z,96549.84
2019-04-03T07:01:02.843Z,96530.27
2019-04-03T07:03:34.385Z,96518.11
2019-04-03T07:06:06.934Z,96514.55
2019-04-03T07:08:39.685Z,96510.09
2019-04-03T07:11:08.723Z,96510.85
2019-04-03T07:13:39.994Z,96525.29
2019-04-03T07:16:10.395Z,96517.10
2019-04-03T07:18:40.152Z,96501.75
2019-04-03T07:21:10.582Z,96519.81
2019-04-03T07:23:41.243Z,96516.77
2019-04-03T07:26:11.085Z,96517.92
2019-04-03T07:28:41.495Z,96519.97
2019-04-03T07:31:13.136Z,96523.42
2019-04-03T07:33:43.549Z,96532.59
2019-04-03T07:36:14.071Z,96530.59
2019-04-03T07:38:43.482Z,96533.36
2019-04-03T07:41:14.051Z,96541.56
2019-04-03T07:43:43.623Z,96538.62
2019-04-03T07:46:14.029Z,96534.27
2019-04-03T07:48:43.572Z,96527.11
2019-04-03T07:51:13.822Z,96527.33
2019-04-03T07:53:44.183Z,96522.44
2019-04-03T07:56:13.591Z,96526.50
2019-04-03T07:58:43.967Z,96516.95
2019-04-03T08:01:14.142Z,96516.60
2019-04-03T08:03:44.790Z,96521.32
2019-04-03T08:06:15.474Z,96518.43
2019-04-03T08:09:06.926Z,96515.54
2019-04-03T08:11:25.905Z,96512.55
2019-04-03T08:13:57.329Z,96516.22
2019-04-03T08:16:27.861Z,96521.15
2019-04-03T08:18:57.267Z,96521.48
2019-04-03T08:21:27.999Z,96519.75
2019-04-03T08:23:58.873Z,96507.37
2019-04-03T08:26:30.630Z,96505.58
2019-04-03T08:29:01.786Z,96509.02
2019-04-03T08:31:31.873Z,96501.22
2019-04-03T08:34:14.651Z,96497.77
2019-04-03T08:36:38.344Z,96496.89
2019-04-03T08:39:08.546Z,96495.73
2019-04-03T08:41:38.929Z,96494.64
2019-04-03T08:44:09.248Z,96505.42
2019-04-03T08:46:42.979Z,96503.33
2019-04-03T08:49:11.924Z,96509.21
2019-04-03T08:51:42.385Z,96508.08
2019-04-03T08:54:11.778Z,96505.06
2019-04-03T08:56:42.290Z,96503.72
2019-04-03T08:59:13.554Z,96506.09
2019-04-03T09:01:45.984Z,96490.60
2019-04-03T09:04:18.089Z,96499.19
2019-04-03T09:06:48.825Z,96494.77
2019-04-03T09:09:18.414Z,96483.08
2019-04-03T09:11:47.968Z,96489.19
2019-04-03T09:14:19.705Z,96488.87
2019-04-03T09:16:49.497Z,96482.16
2019-04-03T09:19:18.990Z,96477.83
2019-04-03T09:21:51.394Z,96474.48
2019-04-03T09:24:22.353Z,96462.63
2019-04-03T09:26:51.972Z,96462.63
2019-04-03T09:29:22.347Z,96463.30
2019-04-03T09:31:55.800Z,96460.61
2019-04-03T09:34:25.100Z,96460.41
2019-04-03T09:36:55.566Z,96451.16
2019-04-03T09:39:26.170Z,96456.20
2019-04-03T09:41:56.528Z,96451.09
2019-04-03T09:44:26.106Z,96451.66
2019-04-03T09:46:56.690Z,96442.55
2019-04-03T09:49:26.143Z,96429.25
2019-04-03T09:51:55.711Z,96438.73
2019-04-03T09:54:27.520Z,96427.36
2019-04-03T09:57:03.809Z,96427.36
2019-04-03T09:59:28.795Z,96431.25
2019-04-03T10:01:58.304Z,96408.34
2019-04-03T10:04:28.894Z,96408.34
2019-04-03T10:06:59.834Z,96419.29
2019-04-03T10:09:30.045Z,96420.36
2019-04-03T10:12:01.587Z,96416.89
2019-04-03T10:14:31.060Z,96411.39
2019-04-03T10:17:01.432Z,96401.34
2019-04-03T10:19:30.802Z,96402.23
2019-04-03T10:22:00.905Z,96391.35
2019-04-03T10:24:31.093Z,96399.75
2019-04-03T10:27:01.760Z,96404.08
2019-04-03T10:29:31.315Z,96398.79
2019-04-03T10:32:01.666Z,96385.89
2019-04-03T10:34:34.831Z,96382.73
2019-04-03T10:37:04.872Z,96385.67
2019-04-03T10:39:40.021Z,96377.73
2019-04-03T10:42:10.138Z,96372.02
2019-04-03T10:44:40.689Z,96365.47
2019-04-03T10:47:11.273Z,96357.23
2019-04-03T10:49:41.635Z,96349.53
2019-04-03T10:52:14.474Z,96346.86
2019-04-03T10:54:45.154Z,96348.16
2019-04-03T10:57:14.155Z,96347.26
2019-04-03T10:59:44.974Z,96343.23
2019-04-03T11:02:15.619Z,96338.33
2019-04-03T11:04:45.453Z,96337.23
2019-04-03T11:07:14.887Z,96323.69
2019-04-03T11:09:44.531Z,96327.71
2019-04-03T11:12:14.045Z,96316.01
2019-04-03T11:14:46.036Z,96316.44
2019-04-03T11:17:15.995Z,96307.10
2019-04-03T11:19:47.629Z,96296.94
2019-04-03T11:22:19.123Z,96292.95
2019-04-03T11:24:49.766Z,96292.84
2019-04-03T11:27:23.090Z,96291.44
2019-04-03T11:29:52.765Z,96291.19
2019-04-03T11:32:23.712Z,96291.45
2019-04-03T11:34:54.813Z,96284.58
2019-04-03T11:37:25.134Z,96285.55
2019-04-03T11:40:02.449Z,96281.28
2019-04-03T11:42:29.196Z,96288.09
2019-04-03T11:44:58.406Z,96275.84
2019-04-03T11:47:27.908Z,96261.19
2019-04-03T11:49:58.337Z,96261.19
2019-04-03T11:52:27.755Z,96259.37
2019-04-03T11:54:57.113Z,96258.37
2019-04-03T11:57:29.768Z,96248.23
2019-04-03T11:59:59.166Z,96249.67
2019-04-03T12:02:29.740Z,96230.52
2019-04-03T12:04:59.956Z,96230.52
2019-04-03T12:07:28.851Z,96236.30
2019-04-03T12:09:58.417Z,96221.59
2019-04-03T12:12:28.842Z,96226.53
2019-04-03T12:14:59.265Z,96194.05
2019-04-03T12:17:30.488Z,96194.05
2019-04-03T12:20:01.328Z,96223.86
2019-04-03T12:22:30.728Z,96201.91
2019-04-03T12:25:01.092Z,96204.89
2019-04-03T12:27:31.621Z,96180.11
2019-04-03T12:30:01.981Z,96180.11
2019-04-03T12:32:39.626Z,96203.67
2019-04-03T12:35:02.730Z,96192.91
2019-04-03T12:37:32.329Z,96180.49
2019-04-03T12:40:03.606Z,96180.49
2019-04-03T12:42:34.045Z,96175.09
2019-04-03T12:45:03.440Z,96157.97
2019-04-03T12:47:33.923Z,96151.81
2019-04-03T12:50:04.340Z,96175.44
2019-04-03T12:52:33.777Z,96175.44
2019-04-03T12:55:03.175Z,96164.56
2019-04-03T12:57:33.777Z,96155.03
2019-04-03T13:00:04.521Z,96148.15
2019-04-03T13:02:36.330Z,96144.80
2019-04-03T13:05:10.192Z,96147.19
2019-04-03T13:07:39.675Z,96139.77
2019-04-03T13:10:12.186Z,96142.12
2019-04-03T13:12:42.579Z,96135.20
2019-04-03T13:15:12.682Z,96141.21
2019-04-03T13:17:44.952Z,96126.11
2019-04-03T13:20:15.747Z,96121.71
2019-04-03T13:22:47.766Z,96140.60
2019-04-03T13:25:20.622Z,96131.51
2019-04-03T13:27:58.368Z,96125.02
2019-04-03T13:30:30.253Z,96125.83
2019-04-03T13:33:05.178Z,96113.88
2019-04-03T13:35:30.874Z,96113.88
2019-04-03T13:38:02.995Z,96119.39
2019-04-03T13:40:36.420Z,96102.70
2019-04-03T13:43:06.112Z,96095.50
2019-04-03T13:45:38.932Z,96071.95
2019-04-03T13:48:13.412Z,96071.95
2019-04-03T13:50:45.474Z,96092.92
2019-04-03T13:53:18.391Z,96090.44
2019-04-03T13:55:50.103Z,96082.48
2019-04-03T13:58:22.547Z,96077.55
2019-04-03T14:01:01.004Z,96070.33
2019-04-03T14:03:28.019Z,96070.33
2019-04-03T14:05:58.261Z,96070.39
2019-04-03T14:08:27.744Z,96046.45
2019-04-03T14:10:58.785Z,96029.97
2019-04-03T14:13:28.820Z,96029.97
2019-04-03T14:15:59.475Z,96054.86
2019-04-03T14:18:29.477Z,96050.50
2019-04-03T14:21:00.173Z,96043.62
2019-04-03T14:23:29.655Z,96043.62
2019-04-03T14:26:06.127Z,96024.31
2019-04-03T14:28:29.992Z,96046.22
2019-04-03T14:31:00.565Z,96030.98
2019-04-03T14:33:41.649Z,96036.89
2019-04-03T14:36:01.241Z,96029.44
2019-04-03T14:38:32.397Z,96029.04
2019-04-03T14:41:01.158Z,96021.00
2019-04-03T14:43:33.298Z,96021.00
2019-04-03T14:46:02.076Z,96025.28
2019-04-03T14:48:32.604Z,96025.28
2019-04-03T14:51:02.156Z,96022.63
2019-04-03T14:53:31.595Z,96015.25
2019-04-03T14:56:01.535Z,96015.25
2019-04-03T14:58:34.132Z,96014.78
2019-04-03T15:01:03.539Z,96006.91
2019-04-03T15:03:34.528Z,96002.09
2019-04-03T15:06:05.833Z,95993.20
2019-04-03T15:08:36.952Z,95991.23
2019-04-03T15:11:09.007Z,95986.85
2019-04-03T15:13:39.906Z,95981.25
2019-04-03T15:16:10.346Z,95973.58
2019-04-03T15:18:42.150Z,95966.48
2019-04-03T15:21:11.093Z,95934.66
2019-04-03T15:23:42.016Z,95976.44
2019-04-03T15:26:11.568Z,95952.95
2019-04-03T15:28:41.962Z,95947.95
2019-04-03T15:31:14.321Z,95942.72
2019-04-03T15:33:43.657Z,95942.72
2019-04-03T15:36:13.484Z,95948.87
2019-04-03T15:38:45.649Z,95937.18
2019-04-03T15:41:16.694Z,95934.55
2019-04-03T15:43:49.623Z,95940.81
2019-04-03T15:46:21.086Z,95943.28
2019-04-03T15:48:55.152Z,95931.92
2019-04-03T15:51:25.808Z,95930.00
2019-04-03T15:53:57.033Z,95913.55
2019-04-03T15:56:29.002Z,95934.73
2019-04-03T15:58:59.226Z,95937.97
2019-04-03T16:01:31.100Z,95932.61
2019-04-03T16:04:01.360Z,95932.61
2019-04-03T16:06:33.441Z,95919.98
2019-04-03T16:09:03.774Z,95928.20
2019-04-03T16:11:34.662Z,95906.23
2019-04-03T16:14:06.437Z,95919.59
2019-04-03T16:16:38.078Z,95922.39
2019-04-03T16:19:11.396Z,95906.22
2019-04-03T16:21:40.733Z,95906.22
2019-04-03T16:24:13.139Z,95913.61
2019-04-03T16:26:43.881Z,95913.06
2019-04-03T16:29:13.065Z,95910.34
2019-04-03T16:31:43.885Z,95909.80
2019-04-03T16:34:14.442Z,95907.57
2019-04-03T16:36:47.916Z,95913.59
2019-04-03T16:39:17.340Z,95901.88
2019-04-03T16:41:48.492Z,95900.45
2019-04-03T16:44:20.516Z,95892.12
2019-04-03T16:46:50.800Z,95886.87
2019-04-03T16:49:22.779Z,95895.59
2019-04-03T16:51:53.707Z,95886.00
2019-04-03T16:54:24.174Z,95892.45
2019-04-03T16:56:56.357Z,95888.38
2019-04-03T16:59:25.811Z,95882.63
2019-04-03T17:01:56.839Z,95888.97
2019-04-03T17:04:28.611Z,95888.44
2019-04-03T17:06:57.487Z,95882.80
2019-04-03T17:09:31.746Z,95881.97
2019-04-03T17:12:00.802Z,95884.40
2019-04-03T17:14:31.894Z,95880.36
2019-04-03T17:17:03.525Z,95879.70
2019-04-03T17:19:34.098Z,95876.77
2019-04-03T17:22:05.810Z,95873.90
2019-04-03T17:24:44.046Z,95868.47
2019-04-03T17:27:09.262Z,95862.70
2019-04-03T17:29:41.695Z,95867.59
2019-04-03T17:32:12.450Z,95861.66
2019-04-03T17:34:44.119Z,95863.50
2019-04-03T17:37:12.600Z,95863.10
2019-04-03T17:39:45.132Z,95858.48
2019-04-03T17:42:17.632Z,95858.52
2019-04-03T17:44:48.152Z,95858.88
2019-04-03T17:47:19.243Z,95856.09
2019-04-03T17:49:51.883Z,95854.82
2019-04-03T17:52:25.414Z,95848.20
2019-04-03T17:54:54.994Z,95848.86
2019-04-03T17:57:24.393Z,95852.88
2019-04-03T17:59:52.898Z,95855.33
2019-04-03T18:02:22.820Z,95846.52
2019-04-03T18:04:53.892Z,95854.46
2019-04-03T18:07:24.210Z,95851.84
2019-04-03T18:09:53.701Z,95856.91
2019-04-03T18:12:26.047Z,95850.72
2019-04-03T18:14:55.729Z,95860.45
2019-04-03T18:17:27.637Z,95859.86
2019-04-03T18:19:58.033Z,95862.10
2019-04-03T18:22:27.400Z,95864.28
2019-04-03T18:24:59.132Z,95862.70
2019-04-03T18:27:29.517Z,95859.45
2019-04-03T18:30:00.034Z,95864.16
2019-04-03T18:32:31.190Z,95863.44
2019-04-03T18:35:03.143Z,95871.47
2019-04-03T18:37:32.707Z,95875.13
2019-04-03T18:40:05.713Z,95878.52
2019-04-03T18:42:35.653Z,95881.55
2019-04-03T18:45:07.513Z,95889.14
2019-04-03T18:47:41.608Z,95891.13
2019-04-03T18:50:10.353Z,95884.92
2019-04-03T18:52:41.845Z,95885.29
2019-04-03T18:55:14.538Z,95884.73
2019-04-03T18:57:45.983Z,95879.31
2019-04-03T19:00:17.239Z,95882.84
2019-04-03T19:02:46.645Z,95887.53
2019-04-03T19:05:15.260Z,95884.45
2019-04-03T19:07:45.880Z,95891.94
2019-04-03T19:10:14.335Z,95890.58
2019-04-03T19:12:46.075Z,95892.80
2019-04-03T19:15:15.733Z,95897.31
2019-04-03T19:17:45.279Z,95896.02
2019-04-03T19:20:14.850Z,95894.46
2019-04-03T19:22:44.312Z,95889.10
2019-04-03T19:25:16.562Z,95882.22
2019-04-03T19:27:46.304Z,95887.30
2019-04-03T19:30:16.874Z,95882.97
2019-04-03T19:32:46.290Z,95883.92
2019-04-03T19:35:16.751Z,95888.58
2019-04-03T19:37:46.102Z,95894.05
2019-04-03T19:40:15.615Z,95900.52
2019-04-03T19:42:45.048Z,95900.95
2019-04-03T19:45:14.258Z,95901.44
2019-04-03T19:47:45.838Z,95911.17
2019-04-03T19:50:15.311Z,95904.41
2019-04-03T19:52:45.671Z,95900.72
2019-04-03T19:55:14.524Z,95906.33
2019-04-03T19:57:47.089Z,95899.02
2019-04-03T20:00:18.082Z,95908.69
2019-04-03T20:02:48.485Z,95904.83
2019-04-03T20:05:19.524Z,95915.03
2019-04-03T20:07:48.431Z,95907.01
2019-04-03T20:10:18.154Z,95916.39
2019-04-03T20:12:47.765Z,95916.44
2019-04-03T20:15:18.123Z,95920.23
2019-04-03T20:17:49.050Z,95916.72
2019-04-03T20:20:19.662Z,95912.56
2019-04-03T20:22:49.130Z,95913.25
2019-04-03T20:25:19.507Z,95914.72
2019-04-03T20:27:52.135Z,95925.66
2019-04-03T20:30:21.902Z,95928.25
2019-04-03T20:32:52.506Z,95929.89
2019-04-03T20:35:23.133Z,95938.89
2019-04-03T20:37:56.660Z,95936.53
2019-04-03T20:40:25.723Z,95934.14
2019-04-03T20:42:55.094Z,95933.59
2019-04-03T20:45:25.506Z,95936.31
2019-04-03T20:47:57.386Z,95941.70
2019-04-03T20:50:29.742Z,95949.13
2019-04-03T20:53:00.150Z,95952.11
2019-04-03T20:55:30.566Z,95954.95
2019-04-03T20:58:01.197Z,95954.23
2019-04-03T21:00:31.706Z,95955.44
2019-04-03T21:03:01.145Z,95956.38
2019-04-03T21:05:31.657Z,95963.65
2019-04-03T21:08:02.076Z,95958.31
2019-04-03T21:10:32.469Z,95960.16
2019-04-03T21:13:01.953Z,95961.98
2019-04-03T21:15:31.437Z,95981.98
2019-04-03T21:18:01.845Z,95991.53
2019-04-03T21:20:32.415Z,96002.70
2019-04-03T21:23:03.749Z,96010.92
2019-04-03T21:25:36.128Z,96013.56
2019-04-03T21:28:06.520Z,96013.83
2019-04-03T21:30:36.880Z,96018.30
2019-04-03T21:33:08.657Z,96021.31
2019-04-03T21:35:39.036Z,96028.75
2019-04-03T21:38:11.516Z,96040.07
2019-04-03T21:40:40.894Z,96042.07
2019-04-03T21:43:10.247Z,96045.84
2019-04-03T21:45:41.713Z,96056.30
2019-04-03T21:48:13.547Z,96047.59
2019-04-03T21:50:42.233Z,96064.55
2019-04-03T21:53:12.624Z,96076.34
2019-04-03T21:55:42.078Z,96079.08
2019-04-03T21:58:12.469Z,96081.41
2019-04-03T22:01:01.109Z,96087.48
2019-04-03T22:03:31.408Z,96088.45
2019-04-03T22:06:01.868Z,96097.48
2019-04-03T22:08:32.264Z,96107.45
2019-04-03T22:11:04.614Z,96103.11
2019-04-03T22:13:34.872Z,96107.83
2019-04-03T22:16:06.672Z,96111.73
2019-04-03T22:18:35.558Z,96114.69
2019-04-03T22:21:05.084Z,96116.36
2019-04-03T22:23:35.930Z,96117.88
2019-04-03T22:26:05.941Z,96116.09
2019-04-03T22:28:35.357Z,96115.02
2019-04-03T22:31:04.878Z,96113.16
2019-04-03T22:33:34.271Z,96127.88
2019-04-03T22:36:04.743Z,96129.01
2019-04-03T22:38:37.275Z,96137.41
2019-04-03T22:41:12.134Z,96144.52
2019-04-03T22:43:39.928Z,96137.57
2019-04-03T22:46:10.290Z,96145.61
2019-04-03T22:48:40.527Z,96150.35
2019-04-03T22:51:09.887Z,96143.41
2019-04-03T22:53:39.861Z,96145.14
2019-04-03T22:56:11.445Z,96148.85
2019-04-03T22:58:40.796Z,96142.64
2019-04-03T23:01:10.204Z,96145.08
2019-04-03T23:03:42.542Z,96149.97
2019-04-03T23:06:13.055Z,96153.71
2019-04-03T23:08:42.509Z,96150.70
2019-04-03T23:11:13.027Z,96132.81
2019-04-03T23:13:43.433Z,96134.03
2019-04-03T23:16:13.945Z,96132.52
2019-04-03T23:18:46.584Z,96127.55
2019-04-03T23:21:15.495Z,96120.30
2019-04-03T23:23:44.976Z,96115.75
2019-04-03T23:26:15.340Z,96117.28
2019-04-03T23:28:45.678Z,96117.31
2019-04-03T23:31:16.015Z,96114.30
2019-04-03T23:33:47.554Z,96112.66
2019-04-03T23:36:17.647Z,96121.72
2019-04-03T23:38:47.983Z,96120.11
2019-04-03T23:41:18.381Z,96114.34
2019-04-03T23:43:49.939Z,96112.75
2019-04-03T23:46:19.491Z,96104.72
2019-04-03T23:48:49.500Z,96108.01
2019-04-03T23:51:23.384Z,96104.84
2019-04-03T23:53:50.076Z,96108.13
2019-04-03T23:56:19.445Z,96112.63
2019-04-03T23:58:50.545Z,96106.67
